createdAt,value
2019-03-10T00:02:12.287Z,1.27
2019-03-10T00:04:38.329Z,1.53
2019-03-10T00:07:04.463Z,1.33
2019-03-10T00:09:30.512Z,1.67
2019-03-10T00:11:56.635Z,1.23
2019-03-10T00:14:23.048Z,1.57
2019-03-10T00:16:49.740Z,1.03
2019-03-10T00:19:16.216Z,1.30
2019-03-10T00:21:42.905Z,1.27
2019-03-10T00:24:08.993Z,0.93
2019-03-10T00:26:35.440Z,1.10
2019-03-10T00:29:02.971Z,1.20
2019-03-10T00:31:29.388Z,0.77
2019-03-10T00:33:56.110Z,0.87
2019-03-10T00:36:22.659Z,1.03
2019-03-10T00:38:52.543Z,0.93
2019-03-10T00:41:42.419Z,1.23
2019-03-10T00:44:34.703Z,1.10
2019-03-10T00:47:09.175Z,1.10
2019-03-10T00:49:40.514Z,1.37
2019-03-10T00:52:12.312Z,1.10
2019-03-10T00:54:38.348Z,0.90
2019-03-10T00:57:06.401Z,0.77
2019-03-10T00:59:32.526Z,0.97
2019-03-10T01:01:58.942Z,1.30
2019-03-10T01:04:25.263Z,0.90
2019-03-10T01:06:52.231Z,1.00
2019-03-10T01:09:18.643Z,1.13
2019-03-10T01:11:46.148Z,0.80
2019-03-10T01:14:14.431Z,1.10
2019-03-10T01:16:42.088Z,0.90
2019-03-10T01:19:08.489Z,0.93
2019-03-10T01:21:35.042Z,0.93
2019-03-10T01:24:01.451Z,1.30
2019-03-10T01:26:27.965Z,1.00
2019-03-10T01:28:54.013Z,0.77
2019-03-10T01:31:29.645Z,1.13
2019-03-10T01:34:08.621Z,0.77
2019-03-10T01:36:36.651Z,0.97
2019-03-10T01:39:06.499Z,0.70
2019-03-10T01:41:32.962Z,0.80
2019-03-10T01:43:59.407Z,0.63
2019-03-10T01:46:25.819Z,0.97
2019-03-10T01:48:52.606Z,1.00
2019-03-10T01:51:19.049Z,0.60
2019-03-10T01:53:45.464Z,1.00
2019-03-10T01:56:11.550Z,0.73
2019-03-10T01:58:37.587Z,0.90
2019-03-10T02:01:03.768Z,0.70
2019-03-10T02:03:30.185Z,0.90
2019-03-10T02:05:56.292Z,0.80
2019-03-10T02:08:22.334Z,0.80
2019-03-10T02:10:48.407Z,0.80
2019-03-10T02:13:14.493Z,0.70
2019-03-10T02:15:40.564Z,0.70
2019-03-10T02:18:06.607Z,0.80
2019-03-10T02:20:33.067Z,0.70
2019-03-10T02:22:59.462Z,0.73
2019-03-10T02:25:25.793Z,0.70
2019-03-10T02:27:52.259Z,0.67
2019-03-10T02:30:19.382Z,0.70
2019-03-10T02:32:45.433Z,0.80
2019-03-10T02:35:11.581Z,0.60
2019-03-10T02:37:38.074Z,1.00
2019-03-10T02:40:06.229Z,0.70
2019-03-10T02:42:32.427Z,0.93
2019-03-10T02:44:58.490Z,0.80
2019-03-10T02:47:25.048Z,0.73
2019-03-10T02:49:51.153Z,0.70
2019-03-10T02:52:17.213Z,0.50
2019-03-10T02:54:43.675Z,0.63
2019-03-10T02:57:09.717Z,0.90
2019-03-10T02:59:36.136Z,0.63
2019-03-10T03:02:02.317Z,0.60
2019-03-10T03:04:28.399Z,0.60
2019-03-10T03:06:54.472Z,0.80
2019-03-10T03:09:20.909Z,0.60
2019-03-10T03:11:47.596Z,0.60
2019-03-10T03:14:13.721Z,0.60
2019-03-10T03:16:40.504Z,0.80
2019-03-10T03:19:06.894Z,0.70
2019-03-10T03:21:43.220Z,0.50
2019-03-10T03:24:01.328Z,1.57
2019-03-10T03:26:28.034Z,0.83
2019-03-10T03:28:54.124Z,0.70
2019-03-10T03:31:20.179Z,0.63
2019-03-10T03:33:46.917Z,0.57
2019-03-10T03:36:15.909Z,0.60
2019-03-10T03:38:48.540Z,0.60
2019-03-10T03:41:17.917Z,1.00
2019-03-10T03:43:44.340Z,0.73
2019-03-10T03:46:10.805Z,0.67
2019-03-10T03:48:37.000Z,1.40
2019-03-10T03:51:03.309Z,0.70
2019-03-10T03:53:30.050Z,0.60
2019-03-10T03:55:56.528Z,0.70
2019-03-10T03:58:22.946Z,0.60
2019-03-10T04:00:50.942Z,1.00
2019-03-10T04:03:17.011Z,0.73
2019-03-10T04:05:43.457Z,0.50
2019-03-10T04:08:09.510Z,2.07
2019-03-10T04:10:35.893Z,1.23
2019-03-10T04:13:02.349Z,1.23
2019-03-10T04:15:28.464Z,3.33
2019-03-10T04:17:55.193Z,1.33
2019-03-10T04:20:21.713Z,0.67
2019-03-10T04:22:47.849Z,0.50
2019-03-10T04:25:13.898Z,0.60
2019-03-10T04:27:40.345Z,0.40
2019-03-10T04:30:10.197Z,0.50
2019-03-10T04:32:36.263Z,0.50
2019-03-10T04:35:03.777Z,0.47
2019-03-10T04:37:30.133Z,0.70
2019-03-10T04:39:56.590Z,0.60
2019-03-10T04:42:23.056Z,1.33
2019-03-10T04:44:49.100Z,0.80
2019-03-10T04:47:15.194Z,0.50
2019-03-10T04:49:41.604Z,1.47
2019-03-10T04:52:07.656Z,1.00
2019-03-10T04:54:51.440Z,0.70
2019-03-10T04:57:19.192Z,0.50
2019-03-10T04:59:45.608Z,0.67
2019-03-10T05:02:12.059Z,0.50
2019-03-10T05:04:38.471Z,0.50
2019-03-10T05:07:04.889Z,1.37
2019-03-10T05:09:31.340Z,0.50
2019-03-10T05:11:57.760Z,0.57
2019-03-10T05:14:23.857Z,0.70
2019-03-10T05:16:50.271Z,0.40
2019-03-10T05:19:16.679Z,0.73
2019-03-10T05:21:42.763Z,0.40
2019-03-10T05:24:09.179Z,0.50
2019-03-10T05:26:35.226Z,0.90
2019-03-10T05:29:01.304Z,1.47
2019-03-10T05:31:27.715Z,0.50
2019-03-10T05:33:53.763Z,0.50
2019-03-10T05:36:20.475Z,0.90
2019-03-10T05:38:46.557Z,0.60
2019-03-10T05:41:12.608Z,0.60
2019-03-10T05:43:39.060Z,0.77
2019-03-10T05:46:05.507Z,0.50
2019-03-10T05:48:31.925Z,0.57
2019-03-10T05:50:57.973Z,0.50
2019-03-10T05:53:24.423Z,0.60
2019-03-10T05:55:50.838Z,1.30
2019-03-10T05:58:17.311Z,0.90
2019-03-10T06:00:43.541Z,0.60
2019-03-10T06:03:10.054Z,0.40
2019-03-10T06:05:36.140Z,0.50
2019-03-10T06:08:02.668Z,1.13
2019-03-10T06:10:28.712Z,0.70
2019-03-10T06:12:54.797Z,0.50
2019-03-10T06:15:20.840Z,0.60
2019-03-10T06:17:47.026Z,0.90
2019-03-10T06:20:13.393Z,6.10
2019-03-10T06:22:39.435Z,4.67
2019-03-10T06:25:06.821Z,3.00
2019-03-10T06:27:33.201Z,2.47
2019-03-10T06:29:59.311Z,0.97
2019-03-10T06:32:25.383Z,6.23
2019-03-10T06:34:51.827Z,3.50
2019-03-10T06:37:18.451Z,0.63
2019-03-10T06:39:44.846Z,1.13
2019-03-10T06:42:10.968Z,1.07
2019-03-10T06:44:37.410Z,0.60
2019-03-10T06:47:04.144Z,1.97
2019-03-10T06:49:30.229Z,1.27
2019-03-10T06:51:56.275Z,1.40
2019-03-10T06:54:22.619Z,0.80
2019-03-10T06:56:50.180Z,1.90
2019-03-10T06:59:16.232Z,1.03
2019-03-10T07:01:42.313Z,1.00
2019-03-10T07:04:09.063Z,2.53
2019-03-10T07:06:35.151Z,1.17
2019-03-10T07:09:01.209Z,1.67
2019-03-10T07:11:27.301Z,3.20
2019-03-10T07:13:53.343Z,1.90
2019-03-10T07:16:19.411Z,0.90
2019-03-10T07:18:45.816Z,1.10
2019-03-10T07:21:12.147Z,1.63
2019-03-10T07:23:38.197Z,1.07
2019-03-10T07:26:05.424Z,1.07
2019-03-10T07:28:35.570Z,0.70
2019-03-10T07:31:03.571Z,1.37
2019-03-10T07:33:31.513Z,1.73
2019-03-10T07:36:08.515Z,1.17
2019-03-10T07:38:48.952Z,0.60
2019-03-10T07:41:33.221Z,1.80
2019-03-10T07:44:16.396Z,0.70
2019-03-10T07:46:44.777Z,1.20
2019-03-10T07:49:13.087Z,16.93
2019-03-10T07:51:46.719Z,83.77
2019-03-10T07:54:33.148Z,26.77
2019-03-10T07:57:01.424Z,30.93
2019-03-10T07:59:35.116Z,30.90
2019-03-10T08:02:21.376Z,21.70
2019-03-10T08:04:49.372Z,20.07
2019-03-10T08:07:34.252Z,26.43
2019-03-10T08:10:05.006Z,27.13
2019-03-10T08:12:38.536Z,25.93
2019-03-10T08:15:09.387Z,26.60
2019-03-10T08:17:49.257Z,28.50
2019-03-10T08:20:17.203Z,19.80
2019-03-10T08:22:47.929Z,19.50
2019-03-10T08:25:32.532Z,19.53
2019-03-10T08:28:15.987Z,25.70
2019-03-10T08:31:00.578Z,19.20
2019-03-10T08:33:45.020Z,21.20
2019-03-10T08:36:13.901Z,17.13
2019-03-10T08:38:58.416Z,16.70
2019-03-10T08:41:29.069Z,15.20
2019-03-10T08:44:13.771Z,20.67
2019-03-10T08:46:53.963Z,14.27
2019-03-10T08:49:45.086Z,14.10
2019-03-10T08:52:11.303Z,16.93
2019-03-10T08:54:39.308Z,13.17
2019-03-10T08:57:19.131Z,12.47
2019-03-10T08:59:47.140Z,13.17
2019-03-10T09:02:15.767Z,10.93
2019-03-10T09:04:47.115Z,12.20
2019-03-10T09:07:30.365Z,10.30
2019-03-10T09:10:07.021Z,10.53
2019-03-10T09:12:47.200Z,11.17
2019-03-10T09:15:21.691Z,12.03
2019-03-10T09:17:52.631Z,9.77
2019-03-10T09:20:37.160Z,9.40
2019-03-10T09:23:05.115Z,8.80
2019-03-10T09:25:36.094Z,9.50
2019-03-10T09:28:22.183Z,9.07
2019-03-10T09:30:52.719Z,9.17
2019-03-10T09:33:20.990Z,8.10
2019-03-10T09:35:49.263Z,9.27
2019-03-10T09:38:17.544Z,8.70
2019-03-10T09:40:51.864Z,8.80
2019-03-10T09:43:29.042Z,8.47
2019-03-10T09:46:03.199Z,8.03
2019-03-10T09:48:43.919Z,8.30
2019-03-10T09:51:14.935Z,9.00
2019-03-10T09:53:42.951Z,7.03
2019-03-10T09:56:20.315Z,7.50
2019-03-10T09:58:49.025Z,7.87
2019-03-10T10:01:16.974Z,6.60
2019-03-10T10:03:53.624Z,6.70
2019-03-10T10:06:36.809Z,7.30
2019-03-10T10:09:12.113Z,7.30
2019-03-10T10:11:58.061Z,6.23
2019-03-10T10:14:26.072Z,6.33
2019-03-10T10:17:03.464Z,6.67
2019-03-10T10:19:31.477Z,7.17
2019-03-10T10:22:02.207Z,6.80
2019-03-10T10:24:36.440Z,6.07
2019-03-10T10:27:04.900Z,5.37
2019-03-10T10:29:51.331Z,5.67
2019-03-10T10:32:22.401Z,5.37
2019-03-10T10:34:50.716Z,5.40
2019-03-10T10:37:35.600Z,5.63
2019-03-10T10:40:07.398Z,6.20
2019-03-10T10:42:53.601Z,10.23
2019-03-10T10:45:24.948Z,9.43
2019-03-10T10:48:03.331Z,8.63
2019-03-10T10:50:43.517Z,9.80
2019-03-10T10:53:21.590Z,7.63
2019-03-10T10:55:57.092Z,18.83
2019-03-10T10:58:43.031Z,9.03
2019-03-10T11:01:11.044Z,11.93
2019-03-10T11:03:57.121Z,6.73
2019-03-10T11:06:30.931Z,6.83
2019-03-10T11:09:17.187Z,6.30
2019-03-10T11:11:47.717Z,4.33
2019-03-10T11:14:22.380Z,8.20
2019-03-10T11:17:02.929Z,4.10
2019-03-10T11:19:33.424Z,5.13
2019-03-10T11:22:01.475Z,5.20
2019-03-10T11:24:32.355Z,5.30
2019-03-10T11:27:03.427Z,11.73
2019-03-10T11:29:31.376Z,12.43
2019-03-10T11:31:59.388Z,8.70
2019-03-10T11:34:30.109Z,7.73
2019-03-10T11:37:07.173Z,9.30
2019-03-10T11:39:35.435Z,14.40
2019-03-10T11:42:03.404Z,13.60
2019-03-10T11:44:43.794Z,6.67
2019-03-10T11:47:20.281Z,8.33
2019-03-10T11:49:51.261Z,9.67
2019-03-10T11:52:19.216Z,20.13
2019-03-10T11:55:04.031Z,6.23
2019-03-10T11:57:41.484Z,15.13
2019-03-10T12:00:14.556Z,11.73
2019-03-10T12:02:42.853Z,12.77
2019-03-10T12:05:23.800Z,11.90
2019-03-10T12:07:54.837Z,18.33
2019-03-10T12:10:21.699Z,11.60
2019-03-10T12:12:47.950Z,13.90
2019-03-10T12:15:14.563Z,10.40
2019-03-10T12:17:40.615Z,9.33
2019-03-10T12:20:10.119Z,11.17
2019-03-10T12:22:36.620Z,8.13
2019-03-10T12:25:04.948Z,9.70
2019-03-10T12:27:30.992Z,7.80
2019-03-10T12:29:57.103Z,9.70
2019-03-10T12:32:23.152Z,10.90
2019-03-10T12:34:49.205Z,11.10
2019-03-10T12:37:15.632Z,12.47
2019-03-10T12:39:41.966Z,8.47
2019-03-10T12:42:08.395Z,4.20
2019-03-10T12:44:34.441Z,5.83
2019-03-10T12:47:00.641Z,5.50
2019-03-10T12:49:26.868Z,7.60
2019-03-10T12:51:53.195Z,3.50
2019-03-10T12:54:19.349Z,4.17
2019-03-10T12:56:45.392Z,3.00
2019-03-10T12:59:11.818Z,7.13
2019-03-10T13:01:37.923Z,3.40
2019-03-10T13:04:04.233Z,3.53
2019-03-10T13:06:30.340Z,2.33
2019-03-10T13:08:56.764Z,2.53
2019-03-10T13:11:22.872Z,4.33
2019-03-10T13:13:49.293Z,4.10
2019-03-10T13:16:15.350Z,2.10
2019-03-10T13:18:41.449Z,2.90
2019-03-10T13:21:08.887Z,2.53
2019-03-10T13:23:35.284Z,2.10
2019-03-10T13:26:01.699Z,2.30
2019-03-10T13:28:28.980Z,2.90
2019-03-10T13:30:55.022Z,4.27
2019-03-10T13:33:21.322Z,5.07
2019-03-10T13:35:49.635Z,5.57
2019-03-10T13:38:15.689Z,2.53
2019-03-10T13:40:42.104Z,3.83
2019-03-10T13:43:08.594Z,3.30
2019-03-10T13:45:35.338Z,2.83
2019-03-10T13:48:01.747Z,5.43
2019-03-10T13:50:29.820Z,4.33
2019-03-10T13:52:55.867Z,2.40
2019-03-10T13:55:22.279Z,5.60
2019-03-10T13:57:48.384Z,2.90
2019-03-10T14:00:25.992Z,3.03
2019-03-10T14:02:52.428Z,3.30
2019-03-10T14:05:18.954Z,1.47
2019-03-10T14:07:45.060Z,2.00
2019-03-10T14:10:12.808Z,3.23
2019-03-10T14:12:38.934Z,5.50
2019-03-10T14:15:08.781Z,5.47
2019-03-10T14:17:35.121Z,1.50
2019-03-10T14:20:01.758Z,3.00
2019-03-10T14:22:27.799Z,2.13
2019-03-10T14:24:53.921Z,2.00
2019-03-10T14:27:20.136Z,1.90
2019-03-10T14:29:46.555Z,1.60
2019-03-10T14:32:12.609Z,1.77
2019-03-10T14:34:38.895Z,1.90
2019-03-10T14:37:05.083Z,2.70
2019-03-10T14:39:31.499Z,3.00
2019-03-10T14:41:57.543Z,3.37
2019-03-10T14:44:23.928Z,2.10
2019-03-10T14:46:49.973Z,1.73
2019-03-10T14:49:23.033Z,1.87
2019-03-10T14:51:44.759Z,2.23
2019-03-10T14:54:10.821Z,2.70
2019-03-10T14:56:36.865Z,1.70
2019-03-10T14:59:03.176Z,1.80
2019-03-10T15:01:29.297Z,2.50
2019-03-10T15:03:55.613Z,2.33
2019-03-10T15:06:22.024Z,1.53
2019-03-10T15:08:48.470Z,1.90
2019-03-10T15:11:14.512Z,2.50
2019-03-10T15:13:40.626Z,1.40
2019-03-10T15:16:08.088Z,1.23
2019-03-10T15:18:34.135Z,1.43
2019-03-10T15:21:00.256Z,1.10
2019-03-10T15:23:26.320Z,1.33
2019-03-10T15:25:52.378Z,2.43
2019-03-10T15:28:18.787Z,3.27
2019-03-10T15:30:44.836Z,3.03
2019-03-10T15:33:10.887Z,5.53
2019-03-10T15:35:37.363Z,7.97
2019-03-10T15:38:03.662Z,4.57
2019-03-10T15:40:30.077Z,4.10
2019-03-10T15:42:56.176Z,4.20
2019-03-10T15:45:22.475Z,3.77
2019-03-10T15:47:48.912Z,3.53
2019-03-10T15:50:21.982Z,4.40
2019-03-10T15:52:48.034Z,4.90
2019-03-10T15:55:14.082Z,4.60
2019-03-10T15:57:49.778Z,4.90
2019-03-10T16:00:13.259Z,3.43
2019-03-10T16:02:39.307Z,3.40
2019-03-10T16:05:06.885Z,3.10
2019-03-10T16:07:32.934Z,2.97
2019-03-10T16:09:59.049Z,3.47
2019-03-10T16:12:25.087Z,2.87
2019-03-10T16:14:51.569Z,2.80
2019-03-10T16:17:17.872Z,3.17
2019-03-10T16:19:43.920Z,2.50
2019-03-10T16:22:10.328Z,2.57
2019-03-10T16:24:36.660Z,2.23
2019-03-10T16:27:02.988Z,1.90
2019-03-10T16:29:29.119Z,2.90
2019-03-10T16:31:55.155Z,1.83
2019-03-10T16:34:21.202Z,2.60
2019-03-10T16:36:48.223Z,2.00
2019-03-10T16:39:14.271Z,2.27
2019-03-10T16:41:40.665Z,2.30
2019-03-10T16:44:06.713Z,1.83
2019-03-10T16:46:32.756Z,1.90
2019-03-10T16:48:58.868Z,1.70
2019-03-10T16:51:24.986Z,1.97
2019-03-10T16:53:51.037Z,1.83
2019-03-10T16:56:19.056Z,2.03
2019-03-10T16:58:45.476Z,2.43
2019-03-10T17:01:11.520Z,2.10
2019-03-10T17:03:37.641Z,1.47
2019-03-10T17:06:04.179Z,1.20
2019-03-10T17:08:30.237Z,1.57
2019-03-10T17:10:56.621Z,1.53
2019-03-10T17:13:22.668Z,1.30
2019-03-10T17:15:48.716Z,1.20
2019-03-10T17:18:14.824Z,2.30
2019-03-10T17:20:41.241Z,1.70
2019-03-10T17:23:07.371Z,1.40
2019-03-10T17:25:33.447Z,1.40
2019-03-10T17:27:59.587Z,1.30
2019-03-10T17:30:27.065Z,1.57
2019-03-10T17:32:53.382Z,1.43
2019-03-10T17:35:20.803Z,2.20
2019-03-10T17:37:48.671Z,5.07
2019-03-10T17:40:24.252Z,6.13
2019-03-10T17:42:52.628Z,7.83
2019-03-10T17:45:20.776Z,4.13
2019-03-10T17:47:46.903Z,4.23
2019-03-10T17:50:15.692Z,3.30
2019-03-10T17:52:42.332Z,4.47
2019-03-10T17:55:11.753Z,3.87
2019-03-10T17:57:37.796Z,2.70
2019-03-10T18:00:08.002Z,2.47
2019-03-10T18:02:34.043Z,3.27
2019-03-10T18:05:00.118Z,2.77
2019-03-10T18:07:27.112Z,2.50
2019-03-10T18:09:53.156Z,3.13
2019-03-10T18:12:19.269Z,2.80
2019-03-10T18:14:45.564Z,1.93
2019-03-10T18:17:11.897Z,2.37
2019-03-10T18:19:38.025Z,2.37
2019-03-10T18:22:04.171Z,1.90
2019-03-10T18:24:30.220Z,4.00
2019-03-10T18:26:56.335Z,1.70
2019-03-10T18:29:22.728Z,2.87
2019-03-10T18:31:49.156Z,3.43
2019-03-10T18:34:15.217Z,1.60
2019-03-10T18:36:41.261Z,2.83
2019-03-10T18:39:07.635Z,1.73
2019-03-10T18:41:33.968Z,2.87
2019-03-10T18:44:00.014Z,2.10
2019-03-10T18:46:26.488Z,2.10
2019-03-10T18:48:52.900Z,2.40
2019-03-10T18:51:19.007Z,3.40
2019-03-10T18:53:45.116Z,2.33
2019-03-10T18:56:11.334Z,2.90
2019-03-10T18:58:38.015Z,2.07
2019-03-10T19:01:04.587Z,3.47
2019-03-10T19:03:31.000Z,4.70
2019-03-10T19:05:57.147Z,7.53
2019-03-10T19:08:23.187Z,5.30
2019-03-10T19:10:49.634Z,4.70
2019-03-10T19:13:15.760Z,5.03
2019-03-10T19:15:42.579Z,3.83
2019-03-10T19:18:08.631Z,3.80
2019-03-10T19:20:34.673Z,1.93
2019-03-10T19:23:01.065Z,2.20
2019-03-10T19:25:27.212Z,4.23
2019-03-10T19:27:53.511Z,3.97
2019-03-10T19:30:22.217Z,2.97
2019-03-10T19:32:48.349Z,3.37
2019-03-10T19:35:14.943Z,1.80
2019-03-10T19:37:40.984Z,2.87
2019-03-10T19:40:15.855Z,3.13
2019-03-10T19:42:42.656Z,3.47
2019-03-10T19:45:17.280Z,1.83
2019-03-10T19:47:43.712Z,2.40
2019-03-10T19:50:15.264Z,4.30
2019-03-10T19:52:41.380Z,2.10
2019-03-10T19:55:10.891Z,1.50
2019-03-10T19:57:36.949Z,3.70
2019-03-10T20:00:09.921Z,2.27
2019-03-10T20:02:35.975Z,2.27
2019-03-10T20:05:05.100Z,2.80
2019-03-10T20:07:31.157Z,2.87
2019-03-10T20:09:57.203Z,2.13
2019-03-10T20:12:23.325Z,2.33
2019-03-10T20:14:49.745Z,1.43
2019-03-10T20:17:16.064Z,1.70
2019-03-10T20:19:42.488Z,1.50
2019-03-10T20:22:08.533Z,1.50
2019-03-10T20:24:34.580Z,1.60
2019-03-10T20:27:00.693Z,2.70
2019-03-10T20:29:27.176Z,3.27
2019-03-10T20:31:53.597Z,4.30
2019-03-10T20:34:19.700Z,8.83
2019-03-10T20:36:45.817Z,8.70
2019-03-10T20:39:12.241Z,15.10
2019-03-10T20:41:38.743Z,11.60
2019-03-10T20:44:04.787Z,10.40
2019-03-10T20:46:31.000Z,11.10
2019-03-10T20:48:57.048Z,9.13
2019-03-10T20:51:23.539Z,8.37
2019-03-10T20:53:49.977Z,7.87
2019-03-10T20:56:16.304Z,8.20
2019-03-10T20:58:42.534Z,6.60
2019-03-10T21:01:09.215Z,6.17
2019-03-10T21:03:35.272Z,6.33
2019-03-10T21:06:02.555Z,11.20
2019-03-10T21:08:28.982Z,5.80
2019-03-10T21:10:55.036Z,5.80
2019-03-10T21:13:21.440Z,4.40
2019-03-10T21:15:47.486Z,5.23
2019-03-10T21:18:14.509Z,4.77
2019-03-10T21:20:40.561Z,4.60
2019-03-10T21:23:07.041Z,4.07
2019-03-10T21:25:33.135Z,3.83
2019-03-10T21:27:59.267Z,4.70
2019-03-10T21:30:27.467Z,3.73
2019-03-10T21:32:53.524Z,4.00
2019-03-10T21:35:19.842Z,3.33
2019-03-10T21:37:45.943Z,3.30
2019-03-10T21:40:17.511Z,3.10
2019-03-10T21:42:43.984Z,3.50
2019-03-10T21:45:10.343Z,4.00
2019-03-10T21:47:37.011Z,3.10
2019-03-10T21:50:06.952Z,2.30
2019-03-10T21:52:33.451Z,4.40
2019-03-10T21:54:59.550Z,2.87
2019-03-10T21:57:25.596Z,4.10
2019-03-10T21:59:51.642Z,2.80
2019-03-10T22:02:18.102Z,3.83
2019-03-10T22:04:44.396Z,3.10
2019-03-10T22:07:10.471Z,2.50
2019-03-10T22:09:36.848Z,3.10
2019-03-10T22:12:03.587Z,5.00
2019-03-10T22:14:29.635Z,3.70
2019-03-10T22:16:55.948Z,4.67
2019-03-10T22:19:23.109Z,7.40
2019-03-10T22:21:49.632Z,10.27
2019-03-10T22:24:15.776Z,10.63
2019-03-10T22:26:42.212Z,10.93
2019-03-10T22:29:08.279Z,10.70
2019-03-10T22:31:34.665Z,11.07
2019-03-10T22:34:00.753Z,10.60
2019-03-10T22:36:26.840Z,9.70
2019-03-10T22:38:53.219Z,10.50
2019-03-10T22:41:19.667Z,9.63
2019-03-10T22:43:45.976Z,9.37
2019-03-10T22:46:12.309Z,9.80
2019-03-10T22:48:39.054Z,9.53
2019-03-10T22:51:05.788Z,9.10
2019-03-10T22:53:32.116Z,9.83
2019-03-10T22:55:58.469Z,8.47
2019-03-10T22:58:24.938Z,8.23
2019-03-10T23:00:54.148Z,8.60
2019-03-10T23:03:20.237Z,8.23
2019-03-10T23:05:46.541Z,8.03
2019-03-10T23:08:12.584Z,8.00
2019-03-10T23:10:38.663Z,8.20
2019-03-10T23:13:05.033Z,7.13
2019-03-10T23:15:31.204Z,7.50
2019-03-10T23:17:57.283Z,7.57
2019-03-10T23:20:23.696Z,8.03
2019-03-10T23:22:49.775Z,7.30
2019-03-10T23:25:15.825Z,7.00
2019-03-10T23:27:42.620Z,6.87
2019-03-10T23:30:14.376Z,6.73
2019-03-10T23:32:40.481Z,7.40
2019-03-10T23:35:06.864Z,7.00
2019-03-10T23:37:32.911Z,6.10
2019-03-10T23:39:59.366Z,6.63
2019-03-10T23:42:25.449Z,5.40
2019-03-10T23:44:51.496Z,5.70
2019-03-10T23:47:17.576Z,5.53
2019-03-10T23:49:43.953Z,5.53
2019-03-10T23:52:09.999Z,6.10
2019-03-10T23:54:36.481Z,6.07
2019-03-10T23:57:02.897Z,5.93
2019-03-10T23:59:28.944Z,5.70
